AirNav   Pilot Hours Calculator
 
 486 users online  

2LA2 Igh Heliport
New Iberia, Louisiana, USA

GOING TO NEW IBERIA?


FAA INFORMATION EFFECTIVE 08 SEPTEMBER 2022

Location

FAA Identifier: 2LA2
Lat/Long: 29-59-22.9500N 091-47-04.4000W
29-59.382500N 091-47.073333W
29.9897083,-91.7845556
(estimated)
Elevation: 15 ft. / 5 m (estimated)
Variation: 04E (1985)
Time zone: UTC -5 (UTC -6 during Standard Time)
Zip code: 70560

Heliport Operations

Heliport use: Private use, MEDICAL.
Activation date: 06/1989
Control tower: no
ARTCC: HOUSTON CENTER
FSS: DE RIDDER FLIGHT SERVICE STATION
Attendance: UNATNDD
Segmented circle: no
Lights: FOR PERIMETER LGTS CALL 318-364-0441.

Heliport Communications

WX ASOS at ARA (6 nm NW): 133.325 (337-365-0128)
WX AWOS-3 at IYA (16 nm W): 118.875 (337-892-0526)
WX ASOS at LFT (17 nm NW): 134.05 ((337)262-2757)

Nearby radio navigation aids

VOR radial/distance  VOR name  Freq  Var
LFTr136/16.3LAFAYETTE VORTAC109.8003E
LLAr053/36.4WHITE LAKE VOR/DME114.9504E
LSUr215/39.1FIGHTING TIGER VORTAC116.5006E

 
NDB name  Hdg/Dist  Freq  Var  ID
ABBEVILLE102/18.123002EBNZ -... -. --..

Heliport Services

Runway Information

Helipad H1

Dimensions: 61 x 59 ft. / 19 x 18 m
Surface: concrete
Runway edge lights: PERI
Latitude: 29-59.382500N
Longitude: 091-47.073333W
Elevation: 15.0 ft.
Traffic pattern: leftleft

Heliport Ownership and Management from official FAA records

Ownership: Publicly-owned
Owner: IBERIA GEN. HOSP. & MED CTR
2315 EAST MAIN ST.
NEW IBERIA, LA 70560
Phone 337-364-0441
Manager: JOHNNY LEBLANC
2315 EAST MAIN ST.
NEW IBERIA, LA 70560
Phone 337-364-0441
SHANE MYERS

Additional Remarks

FOR CD CTC LAFAYETTE APCH AT 337-262-2729, WHEN APCH CLSD CTC HOUSTON ARTCC AT 281-230-5622.

Instrument Procedures

There are no published instrument procedures at 2LA2.

Some nearby airports with instrument procedures:

KARA - Acadiana Regional Airport (6 nm NW)
KIYA - Abbeville Chris Crusta Memorial Airport (16 nm W)
KLFT - Lafayette Regional Airport/Paul Fournet Field (17 nm NW)
KPTN - Harry P Williams Memorial Airport (29 nm SE)
KOPL - St Landry Parish Airport-Ahart Field (38 nm NW)
 
Loc | Ops | Rwys | IFR | FBO | Links
Com | Nav | Svcs | Stats | Notes
Area around 2LA2 (Igh Heliport)
 
Road maps at: MapQuest Bing Google
 
Aerial photo
No photo
 
Sectional chart

 
Airport distance calculator
Flying to Igh Heliport? Find the distance to fly.

From to 2LA2

Sunrise and sunset
Times for 02-Oct-2022
 Local
(UTC-5)
 Zulu
(UTC)
Morning civil twilight06:3811:38
Sunrise07:0212:02
Sunset18:5123:51
Evening civil twilight19:1500:15

Current date and time
Zulu (UTC)  02-Oct-2022 11:08:10
Local (UTC-5)  02-Oct-2022 06:08:10
 
METAR
KARA 
6nm NW 
021053Z 33003KT 10SM CLR 12/10 A3006 RMK AO2 SLP177 T01220100
K0R3 
16nm W 
118.875
No observation available
KIYA 
16nm W 
021055Z AUTO 00000KT 10SM CLR 09/07 A3007 RMK AO2 T00940068
KLFT 
17nm NW 
021053Z 00000KT 10SM CLR 13/10 A3006 RMK AO2 SLP180 T01330100
TAF
KARA 
6nm NW 
020520Z 0206/0306 VRB03KT P6SM SKC FM021500 01007KT P6SM SKC FM030100 VRB03KT P6SM SKC
KLFT 
17nm NW 
020520Z 0206/0306 VRB04KT P6SM SKC FM021500 01007KT P6SM SKC FM030100 VRB03KT P6SM SKC
NOTAMs
Click for the latest NOTAMs
NOTAMs are issued by the DoD/FAA and will open in a separate window not controlled by AirNav.

 

 
 

Would you like to see your business listed on this page?

 If your business provides an interesting product or service to pilots, flight crews, aircraft, or users of the Igh Heliport, you should consider listing it here.  To start the listing process, click on the button below
 
Add a business
 

Other Pages about Igh Heliport

Update a link
 
Copyright © AirNav, LLC. All rights reserved. Privacy Policy  Contact